• Join FlightAware (Why Join?)
  • Login
  • US Flag 
05:23PM EDT


 

Airport Tracker/Info


-or-


 

Live Flight TrackerFlight Track Log ✈ G-CIVZ ✈ 14-Apr-2013 ✈ EGLL / LHR - KLAX

Flight Track Log - Related Links

Times and Time Zones

All times are in EDT time to prevent confusion due to time zone crossing. See the G-CIVZ flight status page for this flight to view local times or setup timezone preferences in your user account.

Time Position Orientation Groundspeed Altitude Reporting Facility
EDT Latitude Longitude Course Direction KTS MPH feet Rate Location/Type
07:26AM 51.4661 -0.5299 288° West 188 216 1,300  Level FlightAware ADS-B
07:26AM 51.4715 -0.5455 299° West 211 243 1,500 1,560 Climbing FlightAware ADS-B
07:26AM 51.4799 -0.5633 307° West 214 246 2,000 2,280 Climbing FlightAware ADS-B
07:26AM 51.4837 -0.5724 304° West 209 241 2,300 2,760 Climbing FlightAware ADS-B
07:26AM 51.4868 -0.5803 302° West 204 235 2,600 2,280 Climbing FlightAware ADS-B
07:27AM 51.4937 -0.6001 299° West 204 235 3,100 1,980 Climbing FlightAware ADS-B
07:27AM 51.5005 -0.6202 299° West 205 236 3,600 2,100 Climbing FlightAware ADS-B
07:27AM 51.5079 -0.6412 300° West 204 235 4,200 1,920 Climbing FlightAware ADS-B
07:27AM 51.5148 -0.6617 298° West 213 245 4,600 1,380 Climbing FlightAware ADS-B
07:27AM 51.5179 -0.6715 297° West 221 254 4,700 1,080 Climbing FlightAware ADS-B
07:27AM 51.5207 -0.6771 309° West 231 266 4,800 720 Climbing FlightAware ADS-B
07:28AM 51.5228 -0.6812 309° West 239 275 4,800  Level FlightAware ADS-B
07:28AM 51.5252 -0.6852 314° West 247 284 4,800 840 Level FlightAware ADS-B
07:28AM 51.5289 -0.6901 320° Northwest 258 297 4,900 1,320 Climbing FlightAware ADS-B
07:28AM 51.5343 -0.6966 323° Northwest 268 308 5,000 1,200 Climbing FlightAware ADS-B
07:28AM 51.5398 -0.7002 338° Northwest 279 321 5,100 1,320 Climbing FlightAware ADS-B
07:28AM 51.5441 -0.7030 338° Northwest 288 331 5,200 660 Climbing FlightAware ADS-B
07:28AM 51.5506 -0.7057 345° North 299 344 5,200 660 Level FlightAware ADS-B
07:28AM 51.5563 -0.7069 353° North 306 352 5,300 1,500 Climbing FlightAware ADS-B
07:28AM 51.5629 -0.7072 358° North 313 360 5,400 1,500 Climbing FlightAware ADS-B
07:28AM 51.5683 -0.7066 North 319 367 5,500 1,500 Climbing FlightAware ADS-B
07:28AM 51.5739 -0.7053 North 325 374 5,600 1,500 Climbing FlightAware ADS-B
07:28AM 51.5920 -0.6988 13° North 340 391 5,900 1,620 Climbing FlightAware ADS-B
07:29AM 51.6022 -0.6954 12° North 345 397 6,100 1,620 Climbing FlightAware ADS-B
07:29AM 51.6098 -0.6940 North 347 399 6,200 1,680 Climbing FlightAware ADS-B
07:29AM 51.6240 -0.6923 North 351 404 6,500 1,860 Climbing FlightAware ADS-B
07:29AM 51.6364 -0.6921 North 357 411 6,700 1,320 Climbing FlightAware ADS-B
07:29AM 51.6615 -0.6933 358° North 370 426 7,000 1,140 Climbing FlightAware ADS-B
07:29AM 51.6890 -0.6961 356° North 384 442 7,300 1,140 Climbing FlightAware ADS-B
07:30AM 51.7169 -0.6995 356° North 397 457 7,600 1,320 Climbing FlightAware ADS-B
07:30AM 51.7459 -0.7029 356° North 410 472 8,000 900 Climbing FlightAware ADS-B
07:30AM 51.7755 -0.7065 356° North 414 476 8,100 180 Climbing FlightAware ADS-B
07:30AM 51.8044 -0.7097 356° North 417 480 8,100 780 Level FlightAware ADS-B
07:31AM 51.8347 -0.7130 356° North 418 481 8,500 1,920 Climbing FlightAware ADS-B
07:31AM 51.8647 -0.7162 356° North 421 484 9,100 2,400 Climbing FlightAware ADS-B
07:31AM 51.8835 -0.7182 356° North 424 488 9,500 2,760 Climbing FlightAware ADS-B
07:31AM 51.8915 -0.7186 358° North 427 491 9,700 2,280 Climbing FlightAware ADS-B
07:31AM 51.9092 -0.7171 North 432 497 10,000 2,520 Climbing FlightAware ADS-B
07:32AM 51.9420 -0.7054 12° North 436 502 10,800 2,460 Climbing FlightAware ADS-B
07:32AM 51.9992 -0.6667 23° Northeast 442 509 12,000 2,280 Climbing FlightAware ADS-B
07:33AM 52.0676 -0.6202 23° Northeast 447 514 13,400 420 Climbing FlightAware ADS-B
07:33AM 52.0977 -0.5995 23° Northeast 392 451 12,400 2,040 Descending FlightAware UK
07:33AM 52.1424 -0.5708 23° Northeast 457 526 14,700 3,660 Climbing FlightAware ADS-B
07:34AM 52.2041 -0.5328 21° North 463 533 15,700 1,920 Climbing FlightAware ADS-B
07:34AM 52.2350 -0.5244 10° North 460 529 16,200 1,920 Climbing FlightAware ADS-B
07:34AM 52.2563 -0.5234 North 457 526 16,500 1,860 Climbing FlightAware ADS-B
07:34AM 52.2687 -0.5246 357° North 454 522 16,700 1,980 Climbing FlightAware ADS-B
07:34AM 52.2816 -0.5271 353° North 452 520 16,900 1,980 Climbing FlightAware ADS-B
07:35AM 52.2999 -0.5333 348° North 450 518 17,200 1,560 Climbing FlightAware ADS-B
07:35AM 52.3196 -0.5436 342° North 447 514 17,400 1,680 Climbing FlightAware ADS-B
07:35AM 52.3611 -0.5736 336° Northwest 448 516 18,100 -600 Climbing FlightAware ADS-B
07:35AM 52.3976 -0.5943 336° Northwest 420 483 17,000 1,620 Descending FlightAware UK
07:36AM 52.4361 -0.6120 336° Northwest 462 532 19,100 1,800 Climbing FlightAware ADS-B
07:36AM 52.4715 -0.6289 336° Northwest 426 490 18,100 1,620 Descending FlightAware UK
07:36AM 52.5048 -0.6428 336° Northwest 469 540 20,000 1,500 Climbing FlightAware ADS-B
07:37AM 52.5469 -0.6628 336° Northwest 432 497 19,000 1,620 Descending FlightAware UK
07:37AM 52.5746 -0.6749 336° Northwest 477 549 20,900 1,380 Climbing FlightAware ADS-B
07:37AM 52.6110 -0.6913 336° Northwest 436 502 19,700 1,440 Descending FlightAware UK
07:37AM 52.6524 -0.7101 336° Northwest 484 557 21,800 1,500 Climbing FlightAware ADS-B
07:38AM 52.6883 -0.7266 336° Northwest 446 513 20,600 1,380 Descending FlightAware UK
07:38AM 52.7179 -0.7399 336° Northwest 490 564 22,500 3,480 Climbing FlightAware ADS-B
07:39AM 52.7882 -0.7724 344° North 496 571 23,300 -360 Climbing FlightAware ADS-B
07:39AM 52.8337 -0.7942 344° North 456 525 22,200 1,320 Descending FlightAware UK
07:39AM 52.8579 -0.8047 344° North 499 574 24,000 3,480 Climbing FlightAware ADS-B
07:40AM 52.9243 -0.8401 342° North 499 574 24,600 -780 Climbing FlightAware ADS-B
07:40AM 52.9621 -0.8728 342° North 460 529 23,400 -1,500 Descending FlightAware UK
07:40AM 52.9976 -0.9059 331° Northwest 464 534 23,700 5,160 Climbing FlightAware UK
07:40AM 53.0030 -0.9100 331° Northwest 491 565 25,400 1,500 Climbing FlightAware
07:41AM 53.0450 -0.9511 331° Northwest 470 541 24,300 1,200 Descending FlightAware UK
07:41AM 53.0857 -0.9863 331° Northwest 26,200 4,200 Climbing FlightAware ADS-B
07:41AM 53.1057 -1.0051 331° Northwest 500 575 26,400 -2,160 Climbing FlightAware ADS-B
07:41AM 53.1424 -1.0409 331° Northwest 476 548 25,200 1,140 Descending FlightAware UK
07:42AM 53.1676 -1.0637 331° Northwest 504 580 27,000 3,180 Climbing FlightAware ADS-B
07:42AM 53.2297 -1.1209 331° Northwest 509 586 27,500 -900 Climbing FlightAware ADS-B
07:42AM 53.2639 -1.1549 331° Northwest 484 557 26,300 1,380 Descending FlightAware UK
07:43AM 53.3105 -1.1979 331° Northwest 513 590 28,400 2,940 Climbing FlightAware ADS-B
07:43AM 53.3746 -1.2560 332° Northwest 517 595 28,900 -120 Climbing FlightAware ADS-B
07:44AM 53.4522 -1.3283 332° Northwest 492 566 28,300 1,500 Descending FlightAware UK
07:44AM 53.4850 -1.3570 332° Northwest 513 590 30,300 4,920 Climbing FlightAware
07:44AM 53.5128 -1.3808 333° Northwest 512 589 30,700 -1,620 Climbing FlightAware ADS-B
07:45AM 53.5517 -1.4192 333° Northwest 486 559 29,500 1,260 Descending FlightAware UK
07:45AM 53.5861 -1.4571 333° Northwest 512 589 31,500 1,320 Climbing FlightAware ADS-B
07:45AM 53.6206 -1.4974 333° Northwest 480 552 30,300 900 Descending FlightAware UK
07:45AM 53.6380 -1.5160 333° Northwest 499 574 32,000 2,880 Climbing FlightAware
07:46AM 53.6871 -1.5732 325° Northwest 512 589 32,000 -2,280 Level FlightAware ADS-B
07:46AM 53.7242 -1.6167 325° Northwest 496 571 30,500 -2,100 Descending FlightAware UK
07:47AM 53.7718 -1.6713 326° Northwest 496 571 30,500 2,520 Level FlightAware UK
07:47AM 53.7840 -1.6830 326° Northwest 513 590 32,000  Climbing FlightAware
07:47AM 53.8302 -1.7384 326° Northwest 496 571 30,500 -2,460 Descending FlightAware UK
07:47AM 53.8656 -1.7790 326° Northwest 496 571 30,500 4,260 Level FlightAware UK
07:47AM 53.8640 -1.7760 326° Northwest 516 594 32,000  Climbing FlightAware
07:48AM 53.9017 -1.8201 326° Northwest 498 573 30,500 -2,760 Descending FlightAware UK
07:48AM 53.9369 -1.8608 326° Northwest 498 573 30,500 3,600 Level FlightAware UK
07:48AM 53.9470 -1.8720 326° Northwest 520 598 32,000  Climbing FlightAware
07:48AM 53.9845 -1.9161 326° Northwest 498 573 30,500 -2,220 Descending FlightAware UK
07:49AM 54.0322 -1.9717 326° Northwest 500 575 30,500 3,180 Level FlightAware UK
07:49AM 54.0360 -1.9750 326° Northwest 521 600 32,000  Climbing FlightAware
07:49AM 54.0797 -2.0268 326° Northwest 500 575 30,500  Descending FlightAware UK
07:49AM 54.1040 -2.0540 326° Northwest 523 602 32,000  Climbing FlightAware
07:50AM 54.1755 -2.1384 326° Northwest 500 575 30,500  Descending FlightAware UK
07:50AM 54.1830 -2.1470 326° Northwest 520 598 32,000  Climbing FlightAware
07:50AM 54.2349 -2.2085 326° Northwest 498 573 30,500 -2,280 Descending FlightAware UK
07:51AM 54.2704 -2.2504 325° Northwest 498 573 30,500 4,980 Level FlightAware UK
07:51AM 54.2660 -2.2450 325° Northwest 518 596 32,000  Climbing FlightAware
07:51AM 54.3058 -2.2922 325° Northwest 498 573 30,500  Descending FlightAware UK
07:51AM 54.3230 -2.3100 325° Northwest 515 593 32,000 1,560 Climbing FlightAware
07:52AM 54.4100 -2.4150 325° Northwest 512 589 32,000 -1,380 Level FlightAware
07:52AM 54.4579 -2.4735 325° Northwest 496 571 30,500  Descending FlightAware UK
07:53AM 54.4830 -2.5030 325° Northwest 512 589 32,000  Climbing FlightAware
07:53AM 54.5277 -2.5573 325° Northwest 494 568 30,500  Descending FlightAware UK
07:53AM 54.5670 -2.6040 325° Northwest 513 590 32,000  Climbing FlightAware
07:54AM 54.6088 -2.6550 325° Northwest 498 573 30,500 -2,460 Descending FlightAware UK
07:54AM 54.6437 -2.6974 325° Northwest 498 573 30,500 4,260 Level FlightAware UK
07:54AM 54.6440 -2.6970 325° Northwest 513 590 32,000  Climbing FlightAware
07:54AM 54.6787 -2.7398 325° Northwest 496 571 30,500  Descending FlightAware UK
07:54AM 54.6940 -2.7590 325° Northwest 512 589 32,000  Climbing FlightAware
07:55AM 54.7352 -2.8126 325° Northwest 496 571 30,500  Descending FlightAware UK
07:55AM 54.7670 -2.8540 325° Northwest 508 585 32,000  Climbing FlightAware
07:55AM 54.8017 -2.9043 325° Northwest 498 573 30,500  Descending FlightAware UK
07:56AM 54.8480 -2.9680 325° Northwest 507 583 32,000 1,500 Climbing FlightAware
07:56AM 54.9040 -3.0460 321° Northwest 509 586 32,000 -1,860 Level FlightAware
07:57AM 54.9435 -3.1041 321° Northwest 496 571 30,500  Descending FlightAware UK
07:57AM 54.9740 -3.1460 321° Northwest 509 586 32,000 1,320 Climbing FlightAware
07:58AM 55.0610 -3.2670 321° Northwest 509 586 32,000 -1,320 Level FlightAware
07:58AM 55.1080 -3.3362 321° Northwest 498 573 30,500  Descending FlightAware UK
07:58AM 55.1350 -3.3730 321° Northwest 511 588 32,000  Climbing FlightAware
07:59AM 55.1959 -3.4608 321° Northwest 496 571 30,500  Descending FlightAware UK
07:59AM 55.2060 -3.4750 321° Northwest 508 585 32,000  Climbing FlightAware
07:59AM 55.2396 -3.5232 321° Northwest 496 571 30,500 -2,700 Descending FlightAware UK
08:00AM 55.2722 -3.5698 321° Northwest 496 571 30,500 3,720 Level FlightAware UK
08:00AM 55.2780 -3.5780 321° Northwest 505 581 32,000  Climbing FlightAware
08:00AM 55.3155 -3.6320 321° Northwest 494 568 30,500 -2,520 Descending FlightAware UK
08:00AM 55.3481 -3.6783 321° Northwest 492 566 30,500 3,300 Level FlightAware UK
08:00AM 55.3580 -3.6930 321° Northwest 505 581 32,000  Climbing FlightAware
08:01AM 55.3912 -3.7413 321° Northwest 492 566 30,500  Descending FlightAware UK
08:01AM 55.4080 -3.7630 321° Northwest 505 581 32,000  Climbing FlightAware
08:01AM 55.4561 -3.8357 321° Northwest 494 568 30,500  Descending FlightAware UK
08:02AM 55.4840 -3.8770 321° Northwest 504 580 32,000  Climbing FlightAware
08:02AM 55.5300 -3.9484 321° Northwest 492 566 30,500  Descending FlightAware UK
08:02AM 55.5360 -3.9550 321° Northwest 504 580 32,000  Climbing FlightAware
08:03AM 55.6033 -4.0616 321° Northwest 490 564 30,500  Descending FlightAware UK
08:03AM 55.6200 -4.0880 321° Northwest 498 573 32,000  Climbing FlightAware
08:03AM 55.6560 -4.1430 321° Northwest 490 564 30,500 -2,760 Descending FlightAware UK
08:04AM 55.6878 -4.1920 319° Northwest 492 566 30,500 2,520 Level FlightAware UK
08:04AM 55.7100 -4.2240 319° Northwest 508 585 32,000  Climbing FlightAware
08:04AM 55.7513 -4.2899 319° Northwest 494 568 30,500 -2,520 Descending FlightAware UK
08:04AM 55.7833 -4.3395 319° Northwest 496 571 30,500 3,300 Level FlightAware UK
08:05AM 55.7920 -4.3500 319° Northwest 512 589 32,000  Climbing FlightAware
08:05AM 55.8263 -4.4053 319° Northwest 498 573 30,500 -2,760 Descending FlightAware UK
08:05AM 55.8585 -4.4561 318° Northwest 502 578 30,500 3,600 Level FlightAware UK
08:05AM 55.8620 -4.4610 318° Northwest 514 592 32,000  Climbing FlightAware
08:06AM 55.9014 -4.5230 318° Northwest 500 575 30,500  Descending FlightAware UK
08:06AM 55.9300 -4.5680 319° Northwest 516 594 32,000  Climbing FlightAware
08:06AM 55.9442 -4.5905 319° Northwest 498 573 30,500 -5,100 Descending FlightAware UK
08:06AM 55.9765 -4.6413 319° Northwest 500 575 30,400 2,040 Descending FlightAware UK
08:07AM 56.0150 -4.7010 319° Northwest 519 597 32,000  Climbing FlightAware
08:07AM 56.0522 -4.7603 319° Northwest 500 575 30,400 -2,700 Descending FlightAware UK
08:07AM 56.0846 -4.8116 319° Northwest 498 573 30,500 3,960 Climbing FlightAware UK
08:07AM 56.0870 -4.8140 319° Northwest 518 596 32,000  Climbing FlightAware
08:08AM 56.1493 -4.9137 319° Northwest 500 575 30,500  Descending FlightAware UK
08:08AM 56.1510 -4.9160 319° Northwest 517 595 32,000  Climbing FlightAware
08:08AM 56.2025 -4.9994 319° Northwest 502 578 30,500 -2,400 Descending FlightAware UK
08:09AM 56.2345 -5.0506 318° Northwest 500 575 30,500 3,600 Level FlightAware UK
08:09AM 56.2420 -5.0610 318° Northwest 514 592 32,000  Climbing FlightAware
08:09AM 56.2769 -5.1190 318° Northwest 496 571 30,500 -2,280 Descending FlightAware UK
08:09AM 56.3084 -5.1697 318° Northwest 498 573 30,700 780 Climbing FlightAware UK
08:10AM 56.3401 -5.2210 318° Northwest 494 568 31,000 960 Climbing FlightAware UK
08:10AM 56.3720 -5.2723 318° Northwest 494 568 31,300 960 Climbing FlightAware UK
08:10AM 56.4038 -5.3241 318° Northwest 496 571 31,600 960 Climbing FlightAware UK
08:11AM 56.4356 -5.3759 318° Northwest 496 571 31,900 960 Climbing FlightAware UK
08:11AM 56.4781 -5.4451 318° Northwest 494 568 32,300 840 Climbing FlightAware UK
08:11AM 56.5098 -5.4970 318° Northwest 496 571 32,500 300 Climbing FlightAware UK
08:12AM 56.5416 -5.5491 318° Northwest 494 568 32,500  Level FlightAware UK
08:12AM 56.5735 -5.6014 318° Northwest 494 568 32,500  Level FlightAware UK
08:12AM 56.6054 -5.6539 318° Northwest 494 568 32,500  Level FlightAware UK
08:12AM 56.6374 -5.7065 318° Northwest 492 566 32,500 -180 Level FlightAware UK
08:13AM 56.6694 -5.7594 318° Northwest 496 571 32,400  Descending FlightAware UK
08:13AM 56.7012 -5.8124 318° Northwest 498 573 32,500 120 Climbing FlightAware UK
08:13AM 56.7331 -5.8653 318° Northwest 494 568 32,500  Level FlightAware UK
08:14AM 56.7649 -5.9183 318° Northwest 500 575 32,500  Level FlightAware UK
08:14AM 56.7967 -5.9714 318° Northwest 502 578 32,500  Level FlightAware UK
08:14AM 56.8284 -6.0243 318° Northwest 500 575 32,500  Level FlightAware UK
08:15AM 56.8599 -6.0772 317° Northwest 496 571 32,500  Level FlightAware UK
08:15AM 56.8913 -6.1299 317° Northwest 496 571 32,500  Level FlightAware UK
08:15AM 56.9226 -6.1827 317° Northwest 496 571 32,500  Level FlightAware UK
08:15AM 56.9538 -6.2355 317° Northwest 492 566 32,500  Level FlightAware UK
08:16AM 56.9847 -6.2877 317° Northwest 490 564 32,500  Level FlightAware UK
08:16AM 57.0158 -6.3407 317° Northwest 492 566 32,500  Level FlightAware UK
08:16AM 57.0470 -6.3938 317° Northwest 492 566 32,500  Level FlightAware UK
08:17AM 57.0781 -6.4469 317° Northwest 492 566 32,500  Level FlightAware UK
08:17AM 57.1094 -6.5000 317° Northwest 494 568 32,500  Level FlightAware UK
08:17AM 57.1405 -6.5536 317° Northwest 494 568 32,500  Level FlightAware UK
08:18AM 57.1717 -6.6073 317° Northwest 494 568 32,500  Level FlightAware UK
08:18AM 57.2029 -6.6612 317° Northwest 494 568 32,500  Level FlightAware UK
08:18AM 57.2341 -6.7151 317° Northwest 494 568 32,500  Level FlightAware UK
08:18AM 57.2653 -6.7691 317° Northwest 494 568 32,500 2,760 Level FlightAware UK
08:19AM 57.2840 -6.8000 317° Northwest 510 587 34,000  Climbing FlightAware
08:19AM 57.3175 -6.8596 317° Northwest 494 568 32,500 -2,700 Descending FlightAware UK
08:19AM 57.3489 -6.9140 317° Northwest 494 568 32,500 3,060 Level FlightAware UK
08:19AM 57.3630 -6.9360 317° Northwest 514 592 34,000  Climbing FlightAware
08:20AM 57.4012 -7.0057 317° Northwest 502 578 32,500  Descending FlightAware UK
08:20AM 57.4220 -7.0400 317° Northwest 514 592 34,000  Climbing FlightAware
08:20AM 57.4328 -7.0607 317° Northwest 502 578 32,500 -4,500 Descending FlightAware UK
08:20AM 57.4641 -7.1159 317° Northwest 498 573 32,500  Level FlightAware UK
08:21AM 57.4955 -7.1710 317° Northwest 500 575 32,500 3,000 Level FlightAware UK
08:21AM 57.5100 -7.1960 317° Northwest 512 589 34,000  Climbing FlightAware
08:21AM 57.5474 -7.2631 317° Northwest 500 575 32,500 -2,520 Descending FlightAware UK
08:21AM 57.5785 -7.3183 316° Northwest 500 575 32,500 4,080 Level FlightAware UK
08:21AM 57.5790 -7.3190 316° Northwest 517 595 34,000  Climbing FlightAware
08:22AM 57.6200 -7.3918 316° Northwest 500 575 32,500 -2,220 Descending FlightAware UK
08:22AM 57.6510 -7.4471 316° Northwest 496 571 32,600 4,800 Climbing FlightAware UK
08:22AM 57.6490 -7.4420 316° Northwest 514 592 34,100 300 Climbing FlightAware
08:22AM 57.6819 -7.5023 316° Northwest 496 571 32,700 -2,160 Descending FlightAware UK
08:23AM 57.7125 -7.5574 316° Northwest 494 568 32,900 5,340 Climbing FlightAware UK
08:23AM 57.7110 -7.5520 316° Northwest 510 587 34,400 300 Climbing FlightAware
08:23AM 57.7429 -7.6120 316° Northwest 492 566 33,000 -2,280 Descending FlightAware UK
08:23AM 57.7733 -7.6668 316° Northwest 494 568 33,100 480 Climbing FlightAware UK
08:24AM 57.8034 -7.7215 316° Northwest 496 571 33,300 480 Climbing FlightAware UK
08:24AM 57.8340 -7.7769 316° Northwest 494 568 33,400 3,180 Climbing FlightAware UK
08:24AM 57.8480 -7.8030 316° Northwest 514 592 35,000 300 Climbing FlightAware
08:24AM 57.8647 -7.8326 316° Northwest 498 573 33,500 -5,640 Descending FlightAware UK
08:24AM 57.8851 -7.8700 316° Northwest 498 573 33,500  Level FlightAware UK
08:25AM 57.9158 -7.9261 316° Northwest 498 573 33,500  Level FlightAware UK
08:25AM 57.9467 -7.9823 316° Northwest 498 573 33,500  Level FlightAware UK
08:25AM 57.9774 -8.0387 316° Northwest 496 571 33,500 4,980 Level FlightAware UK
08:25AM 57.9680 -8.0190 316° Northwest 515 593 35,000  Climbing FlightAware
08:26AM 58.0082 -8.0951 316° Northwest 496 571 33,500 -2,520 Descending FlightAware UK
08:26AM 58.0388 -8.1517 316° Northwest 494 568 33,500  Level FlightAware UK
08:26AM 58.0695 -8.2084 316° Northwest 494 568 33,500  Level FlightAware UK
08:27AM 58.1002 -8.2650 316° Northwest 494 568 33,500 3,420 Level FlightAware UK
08:27AM 58.1050 -8.2730 316° Northwest 516 594 35,000  Climbing FlightAware
08:27AM 58.1410 -8.3408 316° Northwest 496 571 33,500 -2,700 Descending FlightAware UK
08:27AM 58.1716 -8.3978 315° West 496 571 33,500 3,720 Level FlightAware UK
08:27AM 58.1730 -8.4000 315° West 518 596 35,000  Climbing FlightAware
08:28AM 58.2123 -8.4743 315° West 498 573 33,500 -2,520 Descending FlightAware UK
08:28AM 58.2431 -8.5317 315° West 498 573 33,500 4,080 Level FlightAware UK
08:28AM 58.2430 -8.5310 315° West 519 597 35,000  Climbing FlightAware
08:28AM 58.2839 -8.6086 315° West 498 573 33,500  Descending FlightAware UK
08:29AM 58.3020 -8.6420 315° West 519 597 35,000  Climbing FlightAware
08:29AM 58.3350 -8.7050 315° West 500 575 33,500 -2,760 Descending FlightAware UK
08:29AM 58.3657 -8.7628 315° West 500 575 33,500 3,600 Level FlightAware UK
08:29AM 58.3680 -8.7680 315° West 519 597 35,000  Climbing FlightAware
08:30AM 58.4065 -8.8404 315° West 502 578 33,500 -2,580 Descending FlightAware UK
08:30AM 58.4371 -8.8986 315° West 502 578 33,500 3,900 Level FlightAware UK
08:30AM 58.4380 -8.9000 315° West 519 597 35,000  Climbing FlightAware
08:30AM 58.4778 -8.9762 315° West 500 575 33,500  Descending FlightAware UK
08:31AM 58.5040 -9.0260 315° West 512 589 35,000 1,320 Climbing FlightAware
08:31AM 58.5810 -9.1720 315° West 512 589 35,000  Level FlightAware
08:32AM 58.6370 -9.2830 314° West 512 589 35,000  Level FlightAware
08:33AM 58.7100 -9.4240 315° West 511 588 35,000  Level FlightAware
08:33AM 58.7730 -9.5480 314° West 509 586 35,000  Level FlightAware
08:34AM 58.8360 -9.6530 319° Northwest 520 598 35,000  Level FlightAware
08:34AM 58.8930 -9.7480 319° Northwest 510 587 35,000  Level FlightAware
08:35AM 58.9600 -9.8760 315° West 508 585 35,000  Level FlightAware
08:36AM 59.0130 -9.9960 311° West 504 580 35,000  Level FlightAware
08:36AM 59.0470 -10.1040 302° West 497 572 35,000  Level FlightAware
08:37AM 59.0890 -10.2710 296° West 494 568 35,000  Level FlightAware
08:38AM 59.1330 -10.4550 295° West 494 568 35,000  Level FlightAware
08:38AM 59.1770 -10.6330 296° West 495 570 35,000  Level FlightAware
08:39AM 59.2200 -10.8140 295° West 494 568 35,000  Level FlightAware
08:40AM 59.2630 -10.9880 296° West 495 570 35,000  Level FlightAware
08:40AM 59.3030 -11.1580 295° West 495 570 35,000  Level FlightAware
08:41AM 59.3460 -11.3370 295° West 497 572 35,000  Level FlightAware
08:42AM 59.3940 -11.5420 295° West 497 572 35,000  Level FlightAware
08:45AM 59.5594 -12.0728 302° West  Level Estimated
08:46AM 59.6263 -12.2909 301° West  Level Estimated
08:47AM 59.6928 -12.5099 301° West  Level Estimated
08:48AM 59.7590 -12.7298 301° West  Level Estimated
08:49AM 59.8247 -12.9506 301° West  Level Estimated
08:50AM 59.8902 -13.1722 301° West  Level Estimated
08:51AM 59.9552 -13.3947 300° West  Level Estimated
08:52AM 60.0199 -13.6181 300° West  Level Estimated
08:53AM 60.0842 -13.8423 300° West  Level Estimated
08:54AM 60.1481 -14.0674 300° West  Level Estimated
08:55AM 60.2116 -14.2934 300° West  Level Estimated
08:56AM 60.2747 -14.5203 299° West  Level Estimated
08:57AM 60.3375 -14.7480 299° West  Level Estimated
08:58AM 60.3998 -14.9766 299° West  Level Estimated
08:59AM 60.4618 -15.2061 299° West  Level Estimated
09:00AM 60.5234 -15.4365 299° West  Level Estimated
09:01AM 60.5846 -15.6677 298° West  Level Estimated
09:02AM 60.6453 -15.8998 298° West  Level Estimated
09:03AM 60.7057 -16.1328 298° West  Level Estimated
09:04AM 60.7657 -16.3667 298° West  Level Estimated
09:05AM 60.8252 -16.6014 298° West  Level Estimated
09:06AM 60.8843 -16.8370 297° West  Level Estimated
09:07AM 60.9431 -17.0735 297° West  Level Estimated
09:08AM 61.0014 -17.3109 297° West  Level Estimated
09:08AM 60.7490 -18.3120 297° West 493 567 35,000  Level FlightAware
09:09AM 61.0593 -17.5491 297° West  Level Estimated
09:09AM 60.7800 -18.5010 289° West 491 565 35,000  Level FlightAware
09:10AM 60.8140 -18.7120 288° West 490 564 35,000  Level FlightAware
09:11AM 60.8470 -18.9090 289° West 489 563 35,000  Level FlightAware
09:11AM 60.8790 -19.1120 288° West 488 562 35,000  Level FlightAware
09:12AM 60.9100 -19.3050 288° West 487 560 35,000  Level FlightAware
09:13AM 60.9350 -19.4680 288° West 487 560 35,000  Level FlightAware
09:14AM 60.9660 -19.6610 288° West 487 560 35,000  Level FlightAware
09:14AM 60.9980 -19.8750 287° West 489 563 35,000  Level FlightAware
09:15AM 61.0200 -20.0260 287° West 489 563 35,000  Level FlightAware
09:15AM 61.0000 -20.0000 286° West 487 560 35,000  Level ETMS Enhanced Traffic Management System
09:16AM 61.0420 -20.1780 287° West 489 563 35,000  Level FlightAware
09:17AM 61.0830 -20.4700 286° West 498 573 35,000  Level FlightAware
09:17AM 61.1110 -20.6760 286° West 500 575 35,000  Level FlightAware
09:18AM 61.1350 -20.8600 285° West 500 575 35,000  Level FlightAware
09:18AM 61.1540 -20.9980 286° West 498 573 35,000  Level FlightAware
09:19AM 61.1770 -21.1770 285° West 497 572 35,000  Level FlightAware
09:20AM 61.2010 -21.3590 285° West 493 567 35,000  Level FlightAware
09:21AM 61.2280 -21.5640 286° West 491 565 35,000  Level FlightAware
09:21AM 61.2510 -21.7460 285° West 488 562 35,000  Level FlightAware
09:22AM 61.2710 -21.9140 284° West 488 562 35,000  Level FlightAware
09:23AM 61.2960 -22.1120 285° West 483 556 35,000  Level FlightAware
09:23AM 61.3170 -22.2870 284° West 480 552 35,000  Level FlightAware
09:24AM 61.3390 -22.4660 284° West 478 550 35,000  Level FlightAware
09:25AM 61.3640 -22.6750 284° West 475 547 35,000  Level FlightAware
09:25AM 61.3850 -22.8520 284° West 475 547 35,000  Level FlightAware
09:26AM 61.4070 -23.0440 284° West 477 549 35,000  Level FlightAware
09:27AM 61.4280 -23.2230 284° West 478 550 35,000  Level FlightAware
09:27AM 61.4480 -23.4030 283° West 481 554 35,000  Level FlightAware
09:28AM 61.4720 -23.6160 283° West 483 556 35,000  Level FlightAware
09:29AM 61.4910 -23.7900 283° West 485 558 35,000  Level FlightAware
09:30AM 61.5130 -23.9950 283° West 485 558 35,000  Level FlightAware
09:30AM 61.5330 -24.1830 283° West 486 559 35,000  Level FlightAware
09:31AM 61.5550 -24.3890 283° West 486 559 35,000  Level FlightAware
09:32AM 61.5730 -24.5640 282° West 485 558 35,000  Level FlightAware
09:32AM 61.5920 -24.7530 282° West 486 559 35,000  Level FlightAware
09:33AM 61.6110 -24.9370 282° West 487 560 35,000  Level FlightAware
09:34AM 61.6260 -25.1020 281° West 487 560 35,000  Level FlightAware
09:34AM 61.6370 -25.2210 281° West 487 560 35,000  Level FlightAware
09:35AM 61.6550 -25.4190 281° West 487 560 35,000  Level FlightAware
09:36AM 61.6830 -25.6840 283° West 489 563 35,000  Level FlightAware
09:36AM 61.7000 -25.8660 281° West 488 562 35,000  Level FlightAware
09:37AM 61.7150 -26.0290 281° West 488 562 35,000  Level FlightAware
09:38AM 61.7350 -26.2480 281° West 489 563 35,000  Level FlightAware
09:38AM 61.7520 -26.4360 281° West 493 567 35,000  Level FlightAware
09:39AM 61.7670 -26.6110 280° West 497 572 35,000  Level FlightAware
09:40AM 61.7860 -26.8310 280° West 499 574 35,000  Level FlightAware
09:40AM 61.7980 -26.9760 280° West 501 577 35,000  Level FlightAware
09:41AM 61.8140 -27.1690 280° West 504 580 35,000  Level FlightAware
09:41AM 61.8280 -27.3390 280° West 507 583 35,000  Level FlightAware
09:42AM 61.8460 -27.5700 279° West 507 583 35,000  Level FlightAware
09:43AM 61.8580 -27.7370 279° West 507 583 35,000  Level FlightAware
09:44AM 61.8740 -27.9460 279° West 507 583 35,000  Level FlightAware
09:44AM 61.8830 -28.0720 279° West 507 583 35,000  Level FlightAware
09:45AM 61.8960 -28.2390 279° West 507 583 35,000  Level FlightAware
09:46AM 61.9110 -28.4480 279° West 507 583 35,000  Level FlightAware
09:46AM 61.9210 -28.5730 280° West 507 583 35,000  Level FlightAware
09:47AM 61.9360 -28.7830 279° West 507 583 35,000  Level FlightAware
09:48AM 61.9490 -28.9500 279° West 507 583 35,000  Level FlightAware
09:48AM 61.9610 -29.1180 279° West 507 583 35,000  Level FlightAware
09:49AM 61.9740 -29.2850 279° West 507 583 35,000  Level FlightAware
09:50AM 61.9860 -29.4530 279° West 507 583 35,000  Level FlightAware
09:51AM 62.0020 -29.6630 279° West 507 583 35,000  Level FlightAware
09:51AM 62.0140 -29.8300 279° West 507 583 35,000  Level FlightAware
09:51AM 62.0000 -30.0000 274° West 496 571 35,000  Level ETMS Enhanced Traffic Management System
09:54AM 62.0929 -30.4122 286° West  Level Estimated
09:55AM 62.1279 -30.6778 286° West  Level Estimated
09:56AM 62.1625 -30.9440 286° West  Level Estimated
09:57AM 62.1965 -31.2108 285° West  Level Estimated
09:58AM 62.0591 -32.0550 273° West 496 571 35,000  Level FlightAware Transoceanic
09:59AM 62.0651 -32.3492 272° West 496 571 35,000  Level FlightAware Transoceanic
10:00AM 62.0704 -32.6434 272° West 496 571 35,000  Level FlightAware Transoceanic
10:01AM 62.0751 -32.9378 272° West 496 571 35,000  Level FlightAware Transoceanic
10:02AM 62.0792 -33.2322 272° West 496 571 35,000  Level FlightAware Transoceanic
10:03AM 62.0826 -33.5267 271° West 496 571 35,000  Level FlightAware Transoceanic
10:04AM 62.0854 -33.8213 271° West 496 571 35,000  Level FlightAware Transoceanic
10:05AM 62.0876 -34.1160 271° West 496 571 35,000  Level FlightAware Transoceanic
10:06AM 62.0892 -34.4106 271° West 496 571 35,000  Level FlightAware Transoceanic
10:07AM 62.0901 -34.7053 270° West 496 571 35,000  Level FlightAware Transoceanic
10:08AM 62.0905 -35.0000 270° West 496 571 35,000  Level FlightAware Transoceanic
10:09AM 62.0901 -35.2947 270° West 496 571 35,000  Level FlightAware Transoceanic
10:10AM 62.0892 -35.5894 269° West 496 571 35,000  Level FlightAware Transoceanic
10:11AM 62.0876 -35.8840 269° West 496 571 35,000  Level FlightAware Transoceanic
10:12AM 62.0854 -36.1787 269° West 496 571 35,000  Level FlightAware Transoceanic
10:13AM 62.0826 -36.4733 269° West 496 571 35,000  Level FlightAware Transoceanic
10:14AM 62.0792 -36.7678 268° West 496 571 35,000  Level FlightAware Transoceanic
10:15AM 62.0751 -37.0622 268° West 496 571 35,000  Level FlightAware Transoceanic
10:16AM 62.0704 -37.3566 268° West 496 571 35,000  Level FlightAware Transoceanic
10:17AM 62.0651 -37.6508 268° West 496 571 35,000  Level FlightAware Transoceanic
10:18AM 62.0591 -37.9450 267° West 496 571 35,000  Level FlightAware Transoceanic
10:19AM 62.0526 -38.2390 267° West 496 571 35,000  Level FlightAware Transoceanic
10:20AM 62.0453 -38.5329 267° West 496 571 35,000  Level FlightAware Transoceanic
10:20AM 62.0500 -38.5833 278° West 510 587 35,000  Level Gander Center
10:21AM 62.0375 -38.8267 267° West 496 571 35,000  Level FlightAware Transoceanic
10:21AM 62.0500 -38.8833 270° West 510 587 35,000  Level Gander Center
10:22AM 62.0291 -39.1203 266° West 496 571 35,000  Level FlightAware Transoceanic
10:22AM 62.0500 -39.1833 270° West 510 587 35,000  Level Gander Center
10:23AM 62.0200 -39.4137 266° West 496 571 35,000  Level FlightAware Transoceanic
10:23AM 62.0333 -39.4833 263° West 510 587 35,000  Level Gander Center
10:24AM 62.0103 -39.7070 266° West 496 571 35,000  Level FlightAware Transoceanic
10:24AM 62.0167 -39.8000 264° West 520 598 35,000  Level Gander Center
10:25AM 62.0286 -39.9793 278° West  Level Estimated
10:25AM 62.0000 -40.0000 274° West 496 571 35,000  Level ETMS Enhanced Traffic Management System
10:26AM 62.0333 -40.4000 274° West 510 587 35,000  Level Gander Center
10:27AM 62.0500 -40.7000 277° West 510 587 35,000  Level Gander Center
10:28AM 62.0500 -40.9833 270° West 510 587 35,000  Level Gander Center
10:29AM 62.0667 -41.2667 277° West 510 587 35,000  Level Gander Center
10:30AM 62.0667 -41.6000 270° West 510 587 35,000  Level Gander Center
10:31AM 62.0833 -41.8833 277° West 510 587 35,000  Level Gander Center
10:32AM 62.0833 -42.1667 270° West 510 587 35,000  Level Gander Center
10:33AM 62.1000 -42.5000 276° West 510 587 35,000  Level Gander Center
10:34AM 62.1000 -42.7833 270° West 510 587 35,000  Level Gander Center
10:35AM 62.1000 -43.0833 270° West 510 587 35,000  Level Gander Center
10:36AM 62.1000 -43.3667 270° West 510 587 35,000  Level Gander Center
10:37AM 62.1167 -43.6833 277° West 510 587 35,000  Level Gander Center
10:38AM 62.1167 -43.9833 270° West 500 575 35,000  Level Gander Center
10:39AM 62.1167 -44.2667 270° West 500 575 35,000  Level Gander Center
10:40AM 62.1167 -44.5667 270° West 500 575 35,000  Level Gander Center
10:41AM 62.1167 -44.8500 270° West 500 575 35,000  Level Gander Center
10:42AM 62.1167 -45.1500 270° West 510 587 35,000  Level Gander Center
10:43AM 62.1167 -45.4667 270° West 500 575 35,000  Level Gander Center
10:44AM 62.1167 -45.7500 270° West 500 575 35,000  Level Gander Center
10:45AM 62.1167 -46.0500 270° West 500 575 35,000  Level Gander Center
10:46AM 62.1000 -46.3333 263° West 500 575 35,000  Level Gander Center
10:47AM 62.1000 -46.6333 270° West 500 575 35,000  Level Gander Center
10:48AM 62.1000 -46.9167 270° West 500 575 35,000  Level Gander Center
10:49AM 62.1000 -47.2167 270° West 500 575 35,000  Level Gander Center
10:50AM 62.0833 -47.5000 263° West 500 575 35,000  Level Gander Center
10:51AM 62.0833 -47.8000 270° West 500 575 35,000  Level Gander Center
10:52AM 62.0833 -48.0833 270° West 500 575 35,000  Level Gander Center
10:53AM 62.0667 -48.3667 263° West 500 575 35,000  Level Gander Center
10:54AM 62.0667 -48.6667 270° West 500 575 35,000  Level Gander Center
10:55AM 62.0500 -48.9500 263° West 500 575 35,000  Level Gander Center
10:56AM 62.0500 -49.2833 270° West 500 575 35,000  Level Gander Center
10:57AM 62.0500 -49.5667 270° West 500 575 35,000  Level Gander Center
10:58AM 62.0500 -49.8500 270° West 500 575 35,000  Level Gander Center
10:59AM 62.0167 -50.1500 257° West 500 575 35,000  Level Gander Center
11:00AM 62.0000 -50.4333 263° West 510 587 35,000  Level Gander Center
11:01AM 61.9667 -50.7333 257° West 510 587 35,000  Level Gander Center
11:02AM 61.9667 -51.0167 270° West 510 587 35,000  Level Gander Center
11:03AM 61.9333 -51.3167 257° West 510 587 35,000  Level Gander Center
11:04AM 61.9167 -51.6000 263° West 510 587 35,000  Level Gander Center
11:05AM 61.8833 -51.9000 257° West 510 587 35,000  Level Gander Center
11:06AM 61.8667 -52.1833 263° West 510 587 35,000  Level Gander Center
11:07AM 61.8500 -52.4667 263° West 500 575 35,000  Level Gander Center
11:08AM 61.8333 -52.7667 263° West 500 575 35,000  Level Gander Center
11:09AM 62.0000 -50.0000 263° West 500 575 35,000  Level ETMS Enhanced Traffic Management System
11:10AM 61.7833 -53.3333 263° West 500 575 35,000  Level Gander Center
11:11AM 61.7500 -53.6333 257° West 500 575 35,000  Level Gander Center
11:12AM 61.7167 -53.9167 256° West 500 575 35,000  Level Gander Center
11:13AM 61.6833 -54.2833 259° West 500 575 35,000  Level Gander Center
11:14AM 61.6667 -54.5667 263° West 500 575 35,000  Level Gander Center
11:15AM 61.6500 -54.7833 261° West 500 575 35,000  Level Gander Center
11:16AM 61.6167 -55.0667 256° West 500 575 35,000  Level Gander Center
11:17AM 61.6000 -55.4167 264° West 500 575 35,000  Level Gander Center
11:18AM 61.5667 -55.6667 254° West 510 587 35,000  Level Gander Center
11:19AM 61.5333 -55.9500 256° West 510 587 35,000 240 Level Gander Center
11:20AM 61.5000 -56.2333 256° West 510 587 35,500 420 Climbing Gander Center
11:21AM 61.4667 -56.5500 258° West 510 587 36,000 180 Climbing Gander Center
11:22AM 61.4333 -56.8333 256° West 510 587 36,000  Level Gander Center
11:23AM 61.4000 -57.1500 258° West 510 587 36,000  Level Gander Center
11:24AM 61.3667 -57.4333 256° West 520 598 36,000  Level Gander Center
11:25AM 61.3167 -57.7167 250° West 510 587 36,000  Level Gander Center
11:25AM 61.3000 -57.7667 235° Southwest 510 587 36,000  Level Montreal Center
11:26AM 61.3000 -58.0000 270° West 510 587 36,000  Level Gander Center
11:27AM 61.2500 -58.2833 250° West 510 587 36,000  Level Gander Center
11:27AM 61.2500 -58.3500 270° West 510 587 36,000  Level Montreal Center
11:28AM 61.2167 -58.6167 256° West 510 587 36,000  Level Montreal Center
11:29AM 61.1500 -58.8833 243° Southwest 510 587 36,000  Level Montreal Center
11:30AM 61.1500 -59.1500 270° West 510 587 36,000  Level Gander Center
11:31AM 61.1000 -59.4333 250° West 510 587 36,000  Level Gander Center
11:31AM 61.0833 -59.4667 224° Southwest 510 587 36,000  Level Montreal Center
11:32AM 61.0500 -59.7000 254° West 510 587 36,000  Level Montreal Center
11:33AM 61.0167 -59.9833 256° West 510 587 36,000  Level Gander Center
11:34AM 61.0000 -60.2500 263° West 510 587 36,000  Level Gander Center
11:34AM 60.9667 -60.2667 194° South 510 587 36,000  Level Montreal Center
11:35AM 60.9333 -60.5667 257° West 510 587 36,000  Level Montreal Center
11:36AM 60.9000 -60.7667 251° West 510 587 36,000  Level Gander Center
11:37AM 60.8667 -61.0500 257° West 520 598 36,000  Level Gander Center
11:37AM 60.8333 -61.1000 216° Southwest 510 587 36,000  Level Montreal Center
11:38AM 60.8000 -61.4000 257° West 510 587 36,000  Level Montreal Center
11:39AM 60.7667 -61.6500 255° West 520 598 36,000  Level Gander Center
11:39AM 60.7500 -61.7000 236° Southwest 520 598 36,000  Level Montreal Center
11:40AM 60.6833 -62.0000 246° West 520 598 36,000  Level Montreal Center
11:41AM 60.6667 -62.2333 262° West 550 633 36,000  Level Gander Center
11:42AM 60.6333 -62.5000 256° West 520 598 36,000  Level Gander Center
11:42AM 60.6000 -62.5667 224° Southwest 530 610 36,000  Level Montreal Center
11:43AM 60.5833 -62.7333 259° West 520 598 36,000  Level Gander Center
11:44AM 60.5333 -63.0000 249° West 520 598 36,000  Level Gander Center
11:45AM 60.4833 -63.2667 249° West 520 598 36,000  Level Gander Center
11:45AM 60.4500 -63.3833 240° Southwest 520 598 36,000  Level Montreal Center
11:46AM 60.4000 -63.6500 249° West 520 598 36,000  Level Montreal Center
11:47AM 60.3833 -63.8333 260° West 520 598 36,000  Level Gander Center
11:47AM 60.3500 -63.9333 236° Southwest 520 598 36,000  Level Montreal Center
11:48AM 60.3000 -64.2000 249° West 520 598 36,000  Level Montreal Center
11:49AM 60.2333 -64.4500 242° Southwest 520 598 36,000  Level Montreal Center
11:50AM 60.2000 -64.7500 258° West 520 598 36,000  Level Montreal Center
11:51AM 60.1500 -64.9500 243° Southwest 520 598 36,000  Level Gander Center
11:52AM 60.1167 -65.2500 258° West 530 610 36,000  Level Gander Center
11:52AM 60.1000 -65.3167 243° Southwest 520 598 36,000  Level Montreal Center
11:53AM 60.0667 -65.5167 252° West 520 598 36,000  Level Gander Center
11:54AM 60.0500 -65.7500 262° West 520 598 36,000  Level Gander Center
11:55AM 60.0167 -66.0500 258° West 520 598 36,000  Level Gander Center
11:55AM 60.0167 -66.1667 270° West 510 587 36,000  Level Montreal Center
11:56AM 60.0000 -66.3000 256° West 520 598 36,000  Level Gander Center
11:57AM 59.9667 -66.6000 258° West 530 610 36,000  Level Gander Center
11:57AM 59.9500 -66.6833 248° West 510 587 36,000  Level Montreal Center
11:58AM 59.9167 -66.9333 255° West 520 598 36,000  Level Gander Center
11:58AM 59.9167 -66.9667 270° West 510 587 36,000  Level Montreal Center
11:59AM 59.9000 -67.1500 260° West 520 598 36,000  Level Gander Center
12:00PM 59.8667 -67.4500 258° West 520 598 36,000  Level Gander Center
12:00PM 59.8500 -67.5167 244° Southwest 510 587 36,000  Level Montreal Center
12:01PM 59.8167 -67.8000 257° West 510 587 36,000  Level Montreal Center
12:02PM 59.7833 -68.1000 258° West 510 587 36,000  Level Montreal Center
12:03PM 59.7500 -68.3500 255° West 510 587 36,000  Level Montreal Center
12:04PM 59.7167 -68.6167 256° West 510 587 36,000  Level Montreal Center
12:05PM 59.6833 -68.9000 257° West 510 587 36,000  Level Montreal Center
12:06PM 59.6500 -69.1333 254° West 510 587 36,000  Level Gander Center
12:07PM 59.6167 -69.3833 255° West 520 598 36,000  Level Gander Center
12:07PM 59.6000 -69.4500 244° Southwest 510 587 36,000  Level Montreal Center
12:08PM 59.5667 -69.7167 256° West 500 575 36,000  Level Montreal Center
12:09PM 59.5333 -70.0000 257° West 510 587 36,000  Level Montreal Center
12:10PM 59.5000 -70.2667 256° West 510 587 36,000  Level Montreal Center
12:11PM 59.4667 -70.5333 256° West 510 587 36,000  Level Montreal Center
12:12PM 59.4333 -70.8000 256° West 500 575 36,000  Level Montreal Center
12:13PM 59.4000 -71.1000 258° West 510 587 36,000  Level Montreal Center
12:14PM 59.3833 -71.3667 263° West 510 587 36,000  Level Montreal Center
12:15PM 59.3333 -71.6500 251° West 530 610 36,000  Level Montreal Center
12:16PM 59.3167 -71.9167 263° West 520 598 36,000  Level Montreal Center
12:17PM 59.2667 -72.1833 250° West 510 587 36,000  Level Montreal Center
12:18PM 59.2500 -72.4500 263° West 510 587 36,000  Level Montreal Center
12:19PM 59.2000 -72.7167 250° West 500 575 36,000  Level Montreal Center
12:20PM 59.1833 -72.9833 263° West 500 575 36,000  Level Montreal Center
12:21PM 59.1333 -73.2333 249° West 490 564 36,000  Level Montreal Center
12:22PM 59.1000 -73.5000 256° West 510 587 36,000  Level Montreal Center
12:23PM 59.0500 -73.8000 252° West 510 587 36,000  Level Montreal Center
12:24PM 59.0333 -74.0667 263° West 500 575 36,000  Level Montreal Center
12:25PM 59.0000 -74.3333 256° West 500 575 36,000  Level Montreal Center
12:26PM 58.9500 -74.5833 249° West 500 575 36,000  Level Montreal Center
12:27PM 58.9167 -74.8500 256° West 510 587 36,000  Level Montreal Center
12:28PM 58.8667 -75.1167 250° West 510 587 36,000  Level Montreal Center
12:29PM 58.8000 -75.1667 201° Southwest 510 587 36,000  Level Edmonton Center
12:30PM 58.7667 -75.4167 256° West 510 587 36,000  Level Edmonton Center
12:31PM 58.7167 -75.6833 250° West 510 587 36,000  Level Edmonton Center
12:32PM 58.7000 -76.1500 266° West 500 575 36,000  Level Montreal Center
12:33PM 58.6667 -76.4167 257° West 500 575 36,000  Level Montreal Center
12:34PM 58.6167 -76.6667 249° West 500 575 36,000  Level Montreal Center
12:35PM 58.5667 -76.7333 215° Southwest 510 587 36,000  Level Edmonton Center
12:36PM 58.5167 -76.9833 249° West 500 575 36,000  Level Edmonton Center
12:37PM 58.4667 -77.2333 249° West 490 564 36,000  Level Edmonton Center
12:38PM 58.4667 -77.7000 270° West 510 587 36,000  Level Montreal Center
12:39PM 58.4000 -77.9500 243° Southwest 510 587 36,000  Level Montreal Center
12:40PM 58.3667 -78.2000 256° West 500 575 36,000  Level Montreal Center
12:41PM 58.2833 -78.2500 198° South 520 598 36,000  Level Edmonton Center
12:42PM 58.2500 -78.5333 258° West 500 575 36,000  Level Edmonton Center
12:43PM 58.2000 -78.7667 248° West 510 587 36,000  Level Edmonton Center
12:44PM 58.1500 -79.0167 249° West 510 587 36,000  Level Edmonton Center
12:45PM 58.1000 -79.2667 249° West 510 587 36,000  Level Edmonton Center
12:46PM 58.0667 -79.5333 257° West 490 564 36,000  Level Edmonton Center
12:47PM 58.0000 -79.7833 243° Southwest 510 587 36,000  Level Edmonton Center
12:48PM 57.9500 -80.0167 248° West 500 575 36,000  Level Edmonton Center
12:49PM 57.9167 -80.4500 262° West 490 564 36,000  Level Montreal Center
12:50PM 57.8667 -80.7000 249° West 490 564 36,000  Level Montreal Center
12:51PM 57.8000 -80.9167 240° Southwest 490 564 36,000  Level Montreal Center
12:52PM 57.7500 -81.1667 250° West 480 552 36,000  Level Montreal Center
12:53PM 57.6833 -81.4000 242° Southwest 490 564 36,000  Level Montreal Center
12:54PM 57.6333 -81.6167 247° West 490 564 36,000  Level Montreal Center
12:55PM 57.5667 -81.8333 240° Southwest 490 564 36,000  Level Montreal Center
12:56PM 57.5000 -82.0667 242° Southwest 480 552 36,000  Level Montreal Center
12:57PM 57.4500 -82.2833 247° West 500 575 36,000  Level Montreal Center
12:58PM 57.3667 -82.3000 186° South 490 564 36,000  Level Edmonton Center
12:59PM 57.2833 -82.5500 238° Southwest 500 575 36,000  Level Edmonton Center
01:00PM 57.2333 -82.7833 248° West 480 552 36,000  Level Edmonton Center
01:01PM 57.1833 -82.9833 245° Southwest 480 552 36,000  Level Edmonton Center
01:02PM 57.1167 -83.2167 242° Southwest 480 552 36,000  Level Edmonton Center
01:03PM 57.0500 -83.4500 242° Southwest 480 552 36,000  Level Edmonton Center
01:04PM 56.9833 -83.6667 241° Southwest 480 552 36,000  Level Edmonton Center
01:05PM 56.9333 -83.8833 247° West 480 552 36,000  Level Edmonton Center
01:06PM 56.8667 -84.1167 242° Southwest 490 564 36,000  Level Edmonton Center
01:07PM 56.8000 -84.3167 239° Southwest 490 564 36,000  Level Edmonton Center
01:08PM 56.7333 -84.5500 243° Southwest 480 552 36,000  Level Edmonton Center
01:09PM 56.6833 -84.7667 247° West 480 552 36,000  Level Edmonton Center
01:10PM 56.6167 -84.9667 239° Southwest 480 552 36,000  Level Edmonton Center
01:11PM 56.5333 -85.2000 237° Southwest 480 552 36,000  Level Edmonton Center
01:12PM 56.4833 -85.3833 244° Southwest 480 552 36,000  Level Edmonton Center
01:13PM 56.4167 -85.6167 243° Southwest 480 552 36,000  Level Edmonton Center
01:14PM 56.3500 -85.8500 243° Southwest 480 552 36,000  Level Edmonton Center
01:15PM 56.2833 -86.0333 237° Southwest 480 552 36,000  Level Edmonton Center
01:16PM 56.2000 -86.2667 237° Southwest 480 552 36,000  Level Edmonton Center
01:17PM 56.1500 -86.4833 248° West 490 564 36,000  Level Edmonton Center
01:18PM 56.0833 -86.7000 241° Southwest 490 564 36,000  Level Edmonton Center
01:19PM 56.0167 -86.9000 239° Southwest 460 529 36,000  Level Edmonton Center
01:20PM 55.9333 -87.1167 236° Southwest 500 575 36,000  Level Edmonton Center
01:21PM 55.8833 -87.3000 244° Southwest 490 564 36,000  Level Edmonton Center
01:22PM 55.8000 -87.5167 236° Southwest 490 564 36,000  Level Edmonton Center
01:23PM 55.7333 -87.7500 243° Southwest 490 564 36,000  Level Edmonton Center
01:24PM 55.7000 -87.9500 254° West 490 564 36,000  Level Winnipeg Center
01:25PM 55.6333 -88.1667 241° Southwest 490 564 36,000  Level Winnipeg Center
01:26PM 55.5500 -88.3667 234° Southwest 490 564 36,000  Level Winnipeg Center
01:27PM 55.4833 -88.5667 240° Southwest 490 564 36,000  Level Winnipeg Center
01:28PM 55.4167 -88.7500 237° Southwest 490 564 36,000  Level Winnipeg Center
01:29PM 55.3500 -88.9667 242° Southwest 490 564 36,000  Level Winnipeg Center
01:30PM 55.2667 -89.1667 234° Southwest 490 564 36,000  Level Winnipeg Center
01:31PM 55.2000 -89.3833 242° Southwest 490 564 36,000  Level Winnipeg Center
01:32PM 55.1333 -89.5833 240° Southwest 490 564 36,000  Level Winnipeg Center
01:33PM 55.0667 -89.8000 242° Southwest 490 564 36,000  Level Winnipeg Center
01:34PM 54.9833 -89.9833 232° Southwest 490 564 36,000  Level Winnipeg Center
01:35PM 54.9167 -90.1667 238° Southwest 490 564 36,000  Level Winnipeg Center
01:36PM 54.8000 -90.3667 225° Southwest 490 564 36,000  Level Edmonton Center
01:37PM 54.7500 -90.5500 245° Southwest 490 564 36,000  Level Winnipeg Center
01:38PM 54.6500 -90.7333 227° Southwest 490 564 36,000  Level Winnipeg Center
01:39PM 54.5833 -90.9167 238° Southwest 490 564 36,000  Level Winnipeg Center
01:40PM 54.5000 -91.1333 237° Southwest 490 564 36,000  Level Winnipeg Center
01:41PM 54.4167 -91.2833 226° Southwest 490 564 36,000  Level Winnipeg Center
01:42PM 54.3167 -91.5000 232° Southwest 490 564 36,000  Level Winnipeg Center
01:43PM 54.2500 -91.6833 238° Southwest 490 564 36,000  Level Winnipeg Center
01:44PM 54.1500 -91.8667 227° Southwest 490 564 36,000  Level Winnipeg Center
01:45PM 54.0833 -92.0500 238° Southwest 490 564 36,000  Level Winnipeg Center
01:46PM 53.9833 -92.2333 227° Southwest 490 564 36,000  Level Winnipeg Center
01:47PM 53.9167 -92.4167 238° Southwest 490 564 36,000  Level Winnipeg Center
01:48PM 53.8333 -92.6000 232° Southwest 490 564 36,000  Level Winnipeg Center
01:49PM 53.7333 -92.7667 225° Southwest 490 564 36,000  Level Winnipeg Center
01:50PM 53.6667 -92.9500 239° Southwest 480 552 36,000  Level Winnipeg Center
01:51PM 53.5833 -93.1333 233° Southwest 480 552 36,000  Level Winnipeg Center
01:52PM 53.4833 -93.3000 225° Southwest 470 541 36,000  Level Edmonton Center
01:53PM 53.4167 -93.4833 239° Southwest 470 541 36,000  Level Winnipeg Center
01:54PM 53.3333 -93.6500 230° Southwest 470 541 36,000  Level Winnipeg Center
01:55PM 53.2333 -93.8167 225° Southwest 460 529 36,000  Level Edmonton Center
01:56PM 53.1333 -93.9833 225° Southwest 470 541 36,000  Level Edmonton Center
01:57PM 53.0500 -94.1500 230° Southwest 470 541 36,000  Level Edmonton Center
01:58PM 52.9833 -94.3167 236° Southwest 470 541 36,000  Level Edmonton Center
01:59PM 52.9167 -94.5000 239° Southwest 470 541 36,000  Level Winnipeg Center
02:00PM 52.8500 -94.6333 230° Southwest 460 529 36,000  Level Winnipeg Center
02:01PM 52.7500 -94.8333 230° Southwest 440 506 36,000  Level Winnipeg Center
02:02PM 52.6667 -94.9833 228° Southwest 450 518 36,000  Level Winnipeg Center
02:03PM 52.6000 -95.1500 237° Southwest 460 529 36,000  Level Winnipeg Center
02:04PM 52.5333 -95.3167 237° Southwest 450 518 36,000  Level Winnipeg Center
02:05PM 52.4333 -95.4500 219° Southwest 440 506 36,000  Level Winnipeg Center
02:06PM 52.3667 -95.6000 234° Southwest 440 506 36,000  Level Winnipeg Center
02:07PM 52.2833 -95.7667 231° Southwest 440 506 36,000  Level Winnipeg Center
02:08PM 52.2000 -95.9000 224° Southwest 440 506 36,000  Level Winnipeg Center
02:09PM 52.1167 -96.0667 231° Southwest 440 506 36,000 120 Level Winnipeg Center
02:10PM 52.0333 -96.2000 225° Southwest 440 506 36,300 360 Climbing Winnipeg Center
02:11PM 51.9500 -96.3667 231° Southwest 450 518 36,800 480 Climbing Winnipeg Center
02:12PM 51.8667 -96.5333 231° Southwest 450 518 37,300 480 Climbing Winnipeg Center
02:13PM 51.7833 -96.6667 225° Southwest 450 518 37,800 300 Climbing Winnipeg Center
02:14PM 51.7000 -96.8333 231° Southwest 450 518 38,000 60 Climbing Winnipeg Center
02:15PM 51.6167 -96.9667 225° Southwest 450 518 38,000  Level Winnipeg Center
02:16PM 51.5333 -97.1333 231° Southwest 460 529 38,000  Level Winnipeg Center
02:17PM 51.4500 -97.2833 228° Southwest 460 529 38,000  Level Winnipeg Center
02:18PM 51.3667 -97.4500 231° Southwest 460 529 38,000  Level Winnipeg Center
02:19PM 51.2833 -97.5833 225° Southwest 450 518 38,000  Level Winnipeg Center
02:20PM 51.2000 -97.7333 228° Southwest 450 518 38,000  Level Winnipeg Center
02:21PM 51.1167 -97.9000 232° Southwest 450 518 38,000  Level Winnipeg Center
02:22PM 51.0333 -98.0333 225° Southwest 450 518 38,000  Level Winnipeg Center
02:23PM 50.9500 -98.1833 229° Southwest 460 529 38,000  Level Winnipeg Center
02:24PM 50.8500 -98.3500 226° Southwest 460 529 38,000  Level Winnipeg Center
02:25PM 50.7667 -98.5000 229° Southwest 460 529 38,000  Level Winnipeg Center
02:26PM 50.6833 -98.6333 225° Southwest 460 529 38,000  Level Winnipeg Center
02:27PM 50.6000 -98.7833 229° Southwest 460 529 38,000  Level Winnipeg Center
02:28PM 50.5167 -98.9333 229° Southwest 460 529 38,000  Level Winnipeg Center
02:29PM 50.4333 -99.0667 226° Southwest 460 529 38,000  Level Winnipeg Center
02:30PM 50.3333 -99.2167 224° Southwest 460 529 38,000  Level Winnipeg Center
02:31PM 50.2333 -99.3667 224° Southwest 460 529 38,000  Level Winnipeg Center
02:32PM 50.1500 -99.5167 229° Southwest 460 529 38,000  Level Winnipeg Center
02:33PM 50.0667 -99.6500 226° Southwest 460 529 38,000  Level Winnipeg Center
02:34PM 49.9833 -99.8000 229° Southwest 460 529 38,000  Level Winnipeg Center
02:35PM 49.8833 -99.9500 224° Southwest 460 529 38,000  Level Winnipeg Center
02:36PM 49.8167 -100.1000 235° Southwest 460 529 38,000  Level Winnipeg Center
02:37PM 49.7500 -100.2833 241° Southwest 460 529 38,000  Level Winnipeg Center
02:38PM 49.7000 -100.4500 245° Southwest 460 529 38,000  Level Winnipeg Center
02:39PM 49.6167 -100.6333 235° Southwest 460 529 38,000  Level Winnipeg Center
02:40PM 49.5500 -100.7833 236° Southwest 460 529 38,000  Level Winnipeg Center
02:41PM 49.4833 -100.9500 238° Southwest 470 541 38,000  Level Winnipeg Center
02:42PM 49.4000 -101.1333 235° Southwest 470 541 38,000  Level Winnipeg Center
02:43PM 49.3333 -101.2833 236° Southwest 470 541 38,000  Level Winnipeg Center
02:44PM 49.2500 -101.4833 238° Southwest 460 529 38,000  Level Winnipeg Center
02:45PM 49.2000 -101.6333 243° Southwest 470 541 38,000  Level Winnipeg Center
02:46PM 49.1167 -101.8000 233° Southwest 460 529 38,000  Level Winnipeg Center
02:47PM 49.0500 -101.9667 239° Southwest 470 541 38,000  Level Winnipeg Center
02:48PM 48.9833 -102.1167 236° Southwest 470 541 38,000  Level Winnipeg Center
02:49PM 48.9000 -102.2833 233° Southwest 470 541 38,000  Level Winnipeg Center
02:50PM 48.8333 -102.4500 239° Southwest 470 541 38,000  Level Winnipeg Center
02:51PM 48.7500 -102.6167 233° Southwest 480 552 38,000  Level Winnipeg Center
02:52PM 48.7219 -102.7206 248° West 474 545 38,000  Level Minneapolis Center
02:53PM 48.6486 -102.8867 236° Southwest 475 547 38,000  Level Minneapolis Center
02:54PM 48.5753 -103.0539 237° Southwest 476 548 38,000  Level Minneapolis Center
02:54PM 48.5164 -103.1822 235° Southwest 476 548 38,000  Level Salt Lake Center
02:56PM 48.4411 -103.3458 235° Southwest 477 549 38,000  Level Salt Lake Center
02:57PM 48.3664 -103.5078 235° Southwest 476 548 38,000  Level Salt Lake Center
02:58PM 48.2917 -103.6689 235° Southwest 475 547 38,000  Level Salt Lake Center
02:59PM 48.1917 -103.8514 231° Southwest 476 548 38,000  Level Salt Lake Center
03:01PM 48.0036 -104.1172 223° Southwest 471 542 38,000  Level Salt Lake Center
03:02PM 47.9108 -104.2533 225° Southwest 472 543 38,000  Level Salt Lake Center
03:03PM 47.8181 -104.3881 224° Southwest 472 543 38,000  Level Salt Lake Center
03:04PM 47.7081 -104.5500 225° Southwest 471 542 38,000  Level Salt Lake Center
03:05PM 47.6133 -104.6850 224° Southwest 472 543 38,000  Level Salt Lake Center
03:06PM 47.5186 -104.8194 224° Southwest 475 547 38,000  Level Salt Lake Center
03:07PM 47.4264 -104.9531 224° Southwest 471 542 38,000  Level Salt Lake Center
03:08PM 47.3364 -105.0844 225° Southwest 462 532 38,000  Level Salt Lake Center
03:09PM 47.2419 -105.2156 223° Southwest 467 537 38,000  Level Salt Lake Center
03:10PM 47.1469 -105.3481 224° Southwest 471 542 38,000  Level Salt Lake Center
03:11PM 47.0336 -105.5053 223° Southwest 470 541 38,000  Level Salt Lake Center
03:12PM 46.9381 -105.6397 224° Southwest 475 547 38,000  Level Salt Lake Center
03:13PM 46.8419 -105.7708 223° Southwest 477 549 38,000  Level Salt Lake Center
03:14PM 46.7472 -105.8956 222° Southwest 478 550 38,000  Level Salt Lake Center
03:15PM 46.6383 -106.0486 224° Southwest 485 558 38,000  Level Salt Lake Center
03:16PM 46.5433 -106.1783 223° Southwest 488 562 38,000  Level Salt Lake Center
03:17PM 46.4314 -106.3247 222° Southwest 488 562 38,000  Level Salt Lake Center
03:18PM 46.3367 -106.4544 223° Southwest 487 560 38,000  Level Salt Lake Center
03:19PM 46.2253 -106.6050 223° Southwest 490 564 38,000  Level Salt Lake Center
03:20PM 46.1292 -106.7317 222° Southwest 490 564 38,000  Level Salt Lake Center
03:21PM 46.0333 -106.8603 223° Southwest 490 564 38,000  Level Salt Lake Center
03:22PM 45.9208 -107.0061 222° Southwest 488 562 38,000  Level Salt Lake Center
03:23PM 45.8256 -107.1317 223° Southwest 487 560 38,000  Level Salt Lake Center
03:24PM 45.7142 -107.2786 223° Southwest 486 559 38,000  Level Salt Lake Center
03:25PM 45.6181 -107.4008 222° Southwest 484 557 38,000  Level Salt Lake Center
03:26PM 45.5078 -107.5444 222° Southwest 481 554 38,000  Level Salt Lake Center
03:27PM 45.4136 -107.6644 222° Southwest 476 548 38,000  Level Salt Lake Center
03:28PM 45.3042 -107.8033 222° Southwest 473 544 38,000  Level Salt Lake Center
03:29PM 45.2106 -107.9211 222° Southwest 473 544 38,000  Level Salt Lake Center
03:30PM 45.1181 -108.0400 222° Southwest 472 543 38,000  Level Salt Lake Center
03:31PM 45.0097 -108.1778 222° Southwest 472 543 38,000  Level Salt Lake Center
03:32PM 44.9156 -108.2956 222° Southwest 476 548 38,000  Level Salt Lake Center
03:34PM 44.8056 -108.4317 221° Southwest 476 548 38,000  Level Salt Lake Center
03:35PM 44.7117 -108.5483 221° Southwest 474 545 38,000  Level Salt Lake Center
03:36PM 44.6011 -108.6844 221° Southwest 475 547 38,000  Level Salt Lake Center
03:37PM 44.5061 -108.8003 221° Southwest 475 547 38,000  Level Salt Lake Center
03:38PM 44.3956 -108.9347 221° Southwest 473 544 38,000  Level Salt Lake Center
03:39PM 44.3008 -109.0497 221° Southwest 472 543 38,000  Level Salt Lake Center
03:40PM 44.1897 -109.1842 221° Southwest 474 545 38,000  Level Salt Lake Center
03:41PM 44.0942 -109.2983 221° Southwest 473 544 38,000  Level Salt Lake Center
03:42PM 43.9992 -109.4128 221° Southwest 471 542 38,000  Level Salt Lake Center
03:43PM 43.8925 -109.5392 221° Southwest 468 539 38,000  Level Salt Lake Center
03:44PM 43.7817 -109.6700 220° Southwest 467 537 38,000  Level Salt Lake Center
03:45PM 43.6883 -109.7814 221° Southwest 463 533 38,000  Level Salt Lake Center
03:46PM 43.5947 -109.8903 220° Southwest 459 528 38,000  Level Salt Lake Center
03:47PM 43.4850 -110.0094 218° Southwest 467 537 38,000  Level Salt Lake Center
03:48PM 43.3508 -110.0969 205° Southwest 479 551 38,000  Level Salt Lake Center
03:49PM 43.2269 -110.1744 205° Southwest 484 557 38,000  Level Salt Lake Center
03:55PM 42.4950 -110.6280 205° Southwest 478 550 38,000  Level FlightAware
03:56PM 42.4320 -110.6660 204° Southwest 479 551 38,000  Level FlightAware
03:56PM 42.3460 -110.7170 204° Southwest 479 551 38,000  Level FlightAware
03:57PM 42.2770 -110.7590 204° Southwest 479 551 38,000  Level FlightAware
04:00PM 41.8630 -111.0110 204° Southwest 464 534 38,000  Level FlightAware
04:01PM 41.7830 -111.0590 204° Southwest 472 543 38,000  Level FlightAware
04:02PM 41.7050 -111.1070 205° Southwest 473 544 38,000  Level FlightAware
04:02PM 41.6140 -111.1600 204° Southwest 463 533 38,000  Level FlightAware
04:03PM 41.5240 -111.2130 204° Southwest 460 529 38,000  Level FlightAware
04:04PM 41.4460 -111.2600 204° Southwest 456 525 38,000  Level FlightAware
04:04PM 41.3680 -111.3060 204° Southwest 458 527 38,000  Level FlightAware
04:05PM 41.2810 -111.3570 204° Southwest 454 522 38,000  Level FlightAware
04:06PM 41.2050 -111.4020 204° Southwest 443 510 38,000  Level FlightAware
04:07PM 41.1190 -111.4530 204° Southwest 438 504 38,000  Level FlightAware
04:07PM 41.0430 -111.4970 204° Southwest 437 503 38,000  Level FlightAware
04:08PM 40.9590 -111.5460 204° Southwest 438 504 38,000  Level FlightAware
04:09PM 40.8850 -111.5890 204° Southwest 438 504 38,000  Level FlightAware
04:09PM 40.8090 -111.6330 204° Southwest 440 506 38,000  Level FlightAware
04:10PM 40.7250 -111.6810 203° Southwest 441 507 38,000  Level FlightAware
04:11PM 40.6500 -111.7250 204° Southwest 441 507 38,000  Level FlightAware
04:11PM 40.5750 -111.7680 204° Southwest 441 507 38,000  Level FlightAware
04:12PM 40.4910 -111.8160 203° Southwest 443 510 38,000  Level FlightAware
04:13PM 40.4160 -111.8590 204° Southwest 436 502 38,000  Level FlightAware
04:14PM 40.3310 -111.9080 204° Southwest 437 503 38,000  Level FlightAware
04:14PM 40.2540 -111.9520 204° Southwest 439 505 38,000  Level FlightAware
04:15PM 40.1800 -111.9960 204° Southwest 442 509 38,000  Level FlightAware
04:16PM 40.0940 -112.0460 204° Southwest 443 510 38,000  Level FlightAware
04:16PM 40.0190 -112.0910 205° Southwest 441 507 38,000  Level FlightAware
04:17PM 39.9330 -112.1400 204° Southwest 442 509 38,000  Level FlightAware
04:18PM 39.8820 -112.1700 204° Southwest 444 511 38,000  Level FlightAware
04:18PM 39.8140 -112.2080 203° Southwest 455 524 38,000  Level FlightAware
04:19PM 39.7210 -112.2600 203° Southwest 458 527 38,000  Level FlightAware
04:20PM 39.6510 -112.2990 203° Southwest 458 527 38,000  Level FlightAware
04:20PM 39.5840 -112.3360 203° Southwest 458 527 38,000  Level FlightAware
04:21PM 39.5180 -112.3720 203° Southwest 458 527 38,000  Level FlightAware
04:22PM 39.4350 -112.4180 203° Southwest 458 527 38,000  Level FlightAware
04:22PM 39.3690 -112.4540 203° Southwest 458 527 38,000  Level FlightAware
04:23PM 39.2860 -112.5000 203° Southwest 458 527 38,000  Level FlightAware
04:24PM 39.2190 -112.5360 203° Southwest 458 527 38,000  Level FlightAware
04:25PM 39.1530 -112.5720 203° Southwest 458 527 38,000  Level FlightAware
04:25PM 39.0870 -112.6090 204° Southwest 458 527 38,000  Level FlightAware
04:26PM 39.0200 -112.6450 203° Southwest 458 527 38,000  Level FlightAware
04:27PM 38.9380 -112.6900 203° Southwest 458 527 38,000  Level FlightAware
04:27PM 38.8710 -112.7260 203° Southwest 458 527 38,000  Level FlightAware
04:28PM 38.8050 -112.7620 203° Southwest 458 527 38,000  Level FlightAware
04:29PM 38.7390 -112.7980 203° Southwest 458 527 38,000  Level FlightAware
04:30PM 38.4642 -112.9569 203° Southwest 456 525 38,000  Level Los Angeles Center
04:31PM 38.3486 -113.0244 205° Southwest 458 527 38,000  Level Los Angeles Center
04:32PM 38.2444 -113.1086 212° Southwest 447 514 38,000  Level Los Angeles Center
04:33PM 38.1400 -113.1931 212° Southwest 447 514 38,000  Level Los Angeles Center
04:38PM 37.5620 -113.6550 212° Southwest 450 518 38,000  Level FlightAware
04:39PM 37.4930 -113.7080 211° Southwest 451 519 38,000  Level FlightAware
04:40PM 37.4100 -113.7730 212° Southwest 453 521 38,000  Level FlightAware
04:40PM 37.3480 -113.8220 212° Southwest 454 522 38,000  Level FlightAware
04:41PM 37.2770 -113.8780 212° Southwest 454 522 38,000  Level FlightAware
04:41PM 37.2050 -113.9340 212° Southwest 452 520 38,000  Level FlightAware
04:42PM 37.1230 -113.9980 212° Southwest 451 519 38,000  Level FlightAware
04:43PM 37.0540 -114.0520 212° Southwest 451 519 38,000  Level FlightAware
04:44PM 36.9810 -114.1080 212° Southwest 450 518 38,000  Level FlightAware
04:44PM 36.9030 -114.1700 212° Southwest 449 517 38,000  Level FlightAware
04:45PM 36.8230 -114.2320 212° Southwest 450 518 38,000  Level FlightAware
04:46PM 36.7520 -114.2870 212° Southwest 453 521 38,000  Level FlightAware
04:46PM 36.6810 -114.3400 211° Southwest 455 524 38,000  Level FlightAware
04:47PM 36.6090 -114.3940 211° Southwest 456 525 38,000  Level FlightAware
04:48PM 36.5290 -114.4560 212° Southwest 456 525 38,000  Level FlightAware
04:48PM 36.4560 -114.5100 211° Southwest 457 526 38,000  Level FlightAware
04:49PM 36.3830 -114.5670 212° Southwest 457 526 38,000  Level FlightAware
04:50PM 36.3000 -114.6290 211° Southwest 457 526 38,000  Level FlightAware
04:51PM 36.2290 -114.6850 212° Southwest 458 527 38,000  Level FlightAware
04:51PM 36.1490 -114.7460 212° Southwest 460 529 38,000  Level FlightAware
04:52PM 36.0760 -114.8030 212° Southwest 459 528 38,000  Level FlightAware
04:53PM 35.9980 -114.8670 214° Southwest 453 521 38,000  Level FlightAware
04:53PM 35.9400 -114.9430 227° Southwest 450 518 38,000  Level FlightAware
04:54PM 35.8830 -115.0160 226° Southwest 450 518 38,000  Level FlightAware
04:55PM 35.8190 -115.1030 228° Southwest 448 516 38,000  Level FlightAware
04:55PM 35.7630 -115.1780 227° Southwest 447 514 38,000  Level FlightAware
04:56PM 35.7010 -115.2620 228° Southwest 448 516 38,000  Level FlightAware
04:57PM 35.6470 -115.3370 228° Southwest 448 516 38,000  Level FlightAware
04:58PM 35.5920 -115.4110 228° Southwest 450 518 38,000  Level FlightAware
04:58PM 35.5250 -115.4990 227° Southwest 450 518 38,000  Level FlightAware
04:59PM 35.4700 -115.5730 228° Southwest 452 520 38,000  Level FlightAware
05:00PM 35.4140 -115.6490 228° Southwest 452 520 38,000  Level FlightAware
05:00PM 35.3510 -115.7320 227° Southwest 452 520 38,000  Level FlightAware
05:01PM 35.3040 -115.7940 227° Southwest 450 518 38,000  Level FlightAware
05:02PM 35.2440 -115.8730 227° Southwest 450 518 38,000  Level FlightAware
05:02PM 35.1960 -115.9370 227° Southwest 450 518 38,000  Level FlightAware
05:03PM 35.1470 -116.0000 226° Southwest 450 518 38,000  Level FlightAware
05:04PM 35.0990 -116.0630 227° Southwest 450 518 38,000  Level FlightAware
05:04PM 35.0510 -116.1260 227° Southwest 450 518 38,000 -720 Level FlightAware
05:05PM 34.9300 -116.2890 228° Southwest 450 518 37,000 -840 Descending FlightAware
05:06PM 34.8750 -116.3600 227° Southwest 439 505 36,800 -780 Descending FlightAware
05:07PM 34.8150 -116.4400 228° Southwest 419 482 35,900 -1,440 Descending FlightAware
05:07PM 34.7590 -116.4990 221° Southwest 414 476 34,800 -1,920 Descending FlightAware
05:08PM 34.6970 -116.5570 218° Southwest 408 470 33,400 -2,100 Descending FlightAware
05:09PM 34.6330 -116.6170 218° Southwest 410 472 31,900 -2,220 Descending FlightAware
05:09PM 34.5690 -116.6770 218° Southwest 406 467 30,300 -2,280 Descending FlightAware
05:10PM 34.5040 -116.7390 218° Southwest 401 461 28,700 -2,100 Descending FlightAware
05:11PM 34.4460 -116.7920 217° Southwest 398 458 27,400 -1,980 Descending FlightAware
05:12PM 34.3880 -116.8470 218° Southwest 384 442 26,100 -1,980 Descending FlightAware
05:12PM 34.3270 -116.9030 217° Southwest 357 411 24,600 -1,860 Descending FlightAware
05:13PM 34.2750 -116.9520 218° Southwest 352 405 23,500 -1,920 Descending FlightAware
05:14PM 34.2150 -117.0080 218° Southwest 357 411 21,900 -1,980 Descending FlightAware
05:14PM 34.1630 -117.0560 217° Southwest 355 409 20,700 -1,980 Descending FlightAware
05:15PM 34.1120 -117.1080 220° Southwest 349 402 19,300 -2,040 Descending FlightAware
05:16PM 34.0790 -117.1730 239° Southwest 342 394 18,000 -1,740 Descending FlightAware
05:16PM 34.0520 -117.2390 244° Southwest 318 366 17,000 -1,500 Descending FlightAware
05:17PM 34.0420 -117.3060 260° West 287 330 16,000 -1,740 Descending FlightAware
05:18PM 34.0360 -117.3710 264° West 291 335 14,700 -1,680 Descending FlightAware
05:18PM 34.0300 -117.4390 264° West 285 328 13,700 -1,440 Descending FlightAware
05:19PM 34.0310 -117.5030 271° West 282 325 12,700 -1,380 Descending FlightAware
05:20PM 34.0340 -117.5620 274° West 278 320 11,900 -1,320 Descending FlightAware
05:21PM 34.0290 -117.6350 265° West 271 312 10,900 -1,200 Descending FlightAware
05:21PM 34.0220 -117.7010 263° West 278 320 10,100 -1,140 Descending FlightAware
05:22PM 34.0170 -117.7420 262° West 276 318 9,600 -1,140 Descending FlightAware
05:22PM 34.0130 -117.7880 264° West 279 321 9,100 -1,080 Descending FlightAware
05:22PM 34.0110 -117.8100 264° West 279 321 8,800 -1,200 Descending FlightAware
05:23PM 34.0070 -117.8500 263° West 275 316 8,300 -1,200 Descending FlightAware
05:23PM 34.0020 -117.9020 263° West 272 313 7,600 -1,200 Descending FlightAware
05:24PM 34.0000 -117.9270 264° West 273 314 7,300 -1,200 Descending FlightAware
05:24PM 33.9980 -117.9470 263° West 273 314 7,000 -1,200 Descending FlightAware
05:24PM 33.9940 -117.9860 263° West 268 308 6,500 -1,140 Descending FlightAware
05:25PM 33.9890 -118.0300 262° West 255 293 6,000 -540 Descending FlightAware
05:25PM 33.9880 -118.0490 266° West 241 277 6,100 -300 Climbing FlightAware
05:26PM 33.9840 -118.0840 262° West 238 274 5,800 -1,020 Descending FlightAware
05:26PM 33.9800 -118.1210 263° West 230 265 5,200 -1,440 Descending FlightAware
05:27PM 33.9760 -118.1600 263° West 220 253 4,400 -1,560 Descending FlightAware
05:27PM 33.9740 -118.1880 265° West 210 242 3,800 -1,320 Descending FlightAware
05:27PM 33.9700 -118.2210 262° West 205 236 3,200 -1,200 Descending FlightAware
05:28PM 33.9670 -118.2520 263° West 194 223 2,700 -1,140 Descending FlightAware
05:28PM 33.9640 -118.2830 263° West 191 220 2,200 -840 Descending FlightAware
05:29PM 33.9630 -118.2980 265° West 185 213 1,900 -660 Descending FlightAware
05:29PM 33.9600 -118.3250 262° West 158 182 1,500 -480 Descending FlightAware
05:30PM 33.9570 -118.3550 263° West 149 171 1,300 -840 Descending FlightAware
05:31PM 33.9540 -118.3880 264° West 141 162 500 -1,020 Descending FlightAware
05:31PM 33.9520 -118.4000 259° West 141 162 300 -240 Descending FlightAware
05:32PM 33.9500 -118.4180 262° West 141 162 300  Level FlightAware
05:38PM 33.9425 -118.4081 259° West  Level Estimated
05:39PM 33.9425 -118.4081 259° West  Level Estimated